Airport View

Enter AWOS ICAO identifier for current METAR.

ex. KFNL

KSDL 261053Z AUTO 00000KT 10SM CLR 26/00 A2988 RMK AO2 SLP089 T02610000

26 Jun 2019 11:49

Phone: 480-483-3049

Other Area AWOS: KDVT - KPHX - KFFZ - KGEU

TAF KSDL 260520Z 2606/2706 VRB03KT P6SM SCT250 FM262200 22010KT P6SM SKC FM270400 VRB05KT P6SM FEW250